Time;durP1;ratioP1;P1;durP2;ratioP2;P2;SDS_P1;SDS_P2;PMS_P1;PMS_P2;Temp;Humidity;BMP_temperature;BMP_pressure;BME280_temperature;BME280_humidity;BME280_pressure;Samples;Min_cycle;Max_cycle;Signal;HPM_P1;HPM_P2
2024/02/06 00:01:23;;;;;;;4.80;3.10;;;;;;;8.18;86.68;99875.27;104725;1292;60360;-56
2024/02/06 00:04:09;;;;;;;6.00;1.80;;;;;;;8.16;86.59;99864.83;104581;1293;73010;-55
2024/02/06 00:06:55;;;;;;;3.40;1.20;;;;;;;8.14;86.41;99864.00;104663;1294;70960;-56
2024/02/06 00:09:42;;;;;;;9.50;1.70;;;;;;;8.13;86.38;99864.02;104577;1294;71230;-56
2024/02/06 00:12:28;;;;;;;;;;;;;;;8.12;85.76;99864.55;104663;1295;61339;-56
2024/02/06 00:15:14;;;;;;;;;;;;;;;8.12;86.39;99868.84;104630;1291;60472;-55
2024/02/06 00:18:01;;;;;;;22.80;4.60;;;;;;;8.15;85.77;99868.45;104692;1292;74167;-56
2024/02/06 00:20:47;;;;;;;4.00;1.40;;;;;;;8.19;85.83;99870.45;104648;1292;67222;-56
2024/02/06 00:23:33;;;;;;;623.40;211.80;;;;;;;8.21;85.44;99869.88;104680;1291;73976;-56
2024/02/06 00:26:19;;;;;;;10.80;1.40;;;;;;;8.26;84.75;99861.73;104554;1291;61869;-56
2024/02/06 00:29:06;;;;;;;18.90;2.90;;;;;;;8.30;84.95;99871.27;104597;1292;60552;-53
2024/02/06 00:31:52;;;;;;;5.90;1.80;;;;;;;8.28;84.84;99868.19;104601;1292;72371;-55
2024/02/06 00:34:38;;;;;;;5.30;1.80;;;;;;;8.27;85.09;99865.14;104578;1292;67758;-53
2024/02/06 00:37:25;;;;;;;;;;;;;;;8.26;85.12;99866.71;104646;1292;71213;-52
2024/02/06 00:40:11;;;;;;;;;;;;;;;8.28;84.99;99872.67;104604;1292;60119;-56
2024/02/06 00:42:57;;;;;;;22.30;2.70;;;;;;;8.29;85.05;99871.63;105907;1291;59510;-55
2024/02/06 00:45:43;;;;;;;6.70;1.60;;;;;;;8.29;85.11;99865.79;105942;1290;72430;-56
2024/02/06 00:48:29;;;;;;;6.20;5.10;;;;;;;8.29;85.30;99865.45;105960;1291;68445;-56
2024/02/06 00:51:15;;;;;;;16.10;8.10;;;;;;;8.28;85.27;99864.95;105967;1291;72126;-57
2024/02/06 00:54:01;;;;;;;577.90;204.00;;;;;;;8.28;85.35;99865.64;105961;1291;58417;-56
2024/02/06 00:56:47;;;;;;;3.50;1.30;;;;;;;8.29;85.41;99871.62;105895;1292;58878;-57
2024/02/06 00:59:33;;;;;;;43.40;7.30;;;;;;;8.28;85.57;99868.04;105866;1292;71635;-54
2024/02/06 01:02:19;;;;;;;6.00;1.50;;;;;;;8.29;85.50;99866.14;105928;1291;67817;-57
2024/02/06 01:05:06;;;;;;;3.50;1.50;;;;;;;8.29;85.48;99867.67;105862;1292;71327;-57
2024/02/06 01:07:52;;;;;;;3.50;1.40;;;;;;;8.27;85.85;99865.65;105933;1294;58623;-57
2024/02/06 01:10:38;;;;;;;4.40;1.90;;;;;;;8.21;86.30;99864.38;105906;1291;59381;-56
2024/02/06 01:13:24;;;;;;;85.70;39.80;;;;;;;8.13;86.69;99863.85;105930;1292;72432;-56
2024/02/06 01:16:10;;;;;;;5.30;1.80;;;;;;;8.08;87.08;99856.39;105865;1292;67588;-57
2024/02/06 01:18:56;;;;;;;7.40;2.50;;;;;;;8.05;87.39;99855.93;105966;1291;70975;-57
2024/02/06 01:21:42;;;;;;;3.80;2.20;;;;;;;8.01;87.20;99851.36;105970;1292;58502;-56
2024/02/06 01:24:28;;;;;;;7.10;2.60;;;;;;;8.02;87.53;99852.71;105888;1291;58984;-56
2024/02/06 01:27:14;;;;;;;6.30;3.20;;;;;;;8.03;88.39;99857.50;105923;1291;73457;-56
2024/02/06 01:30:00;;;;;;;793.90;255.00;;;;;;;8.04;97.31;99860.23;105935;1291;67242;-57
2024/02/06 01:32:46;;;;;;;7.20;3.50;;;;;;;8.02;96.80;99853.23;105905;1292;71288;-57
2024/02/06 01:35:32;;;;;;;9.60;3.80;;;;;;;8.00;90.33;99856.19;105906;1291;58563;-56
2024/02/06 01:38:19;;;;;;;12.50;6.20;;;;;;;7.95;90.06;99857.80;105771;1292;60668;-57
2024/02/06 01:41:05;;;;;;;9.20;4.00;;;;;;;7.97;89.84;99856.24;105920;1291;72579;-58
2024/02/06 01:43:51;;;;;;;5.90;3.70;;;;;;;7.92;90.10;99852.02;105951;1291;68513;-57
2024/02/06 01:46:39;;;;;;;39.20;17.60;;;;;;;7.90;90.35;99850.01;105922;1291;71352;-57
2024/02/06 01:49:26;;;;;;;8.90;4.80;;;;;;;7.85;90.57;99847.00;105857;1292;58099;-58
2024/02/06 01:52:13;;;;;;;8.60;4.50;;;;;;;7.84;90.62;99846.84;105961;1291;60774;-57
2024/02/06 01:54:59;;;;;;;94.70;51.30;;;;;;;7.85;91.09;99850.95;105938;1291;72382;-57
2024/02/06 01:57:46;;;;;;;8.60;5.00;;;;;;;7.85;91.34;99840.32;105403;1292;67969;-56
2024/02/06 02:00:34;;;;;;;12.60;5.40;;;;;;;7.84;91.31;99840.84;104558;1291;71242;-56
2024/02/06 02:03:23;;;;;;;39.90;7.30;;;;;;;7.84;91.26;99837.77;104629;1292;60390;-55
2024/02/06 02:06:10;;;;;;;11.80;6.20;;;;;;;7.82;91.77;99836.76;104602;1291;60476;-52
2024/02/06 02:08:57;;;;;;;13.20;5.10;;;;;;;7.81;92.00;99832.33;105664;1291;72554;-57
2024/02/06 02:11:43;;;;;;;16.80;7.10;;;;;;;7.78;92.18;99831.71;105963;1290;67907;-57
2024/02/06 02:14:29;;;;;;;10.80;5.70;;;;;;;7.78;93.09;99830.17;105892;1292;72455;-58
2024/02/06 02:17:15;;;;;;;9.50;5.30;;;;;;;7.69;93.38;99826.73;105891;1292;58651;-57
2024/02/06 02:20:01;;;;;;;21.10;10.20;;;;;;;7.66;93.77;99826.09;105904;1291;58854;-56
2024/02/06 02:22:47;;;;;;;9.00;5.50;;;;;;;7.66;93.96;99827.30;105397;1292;73724;-56
2024/02/06 02:25:33;;;;;;;9.70;5.80;;;;;;;7.62;93.41;99828.56;104631;1292;67185;-55
2024/02/06 02:28:20;;;;;;;11.20;6.60;;;;;;;7.62;93.52;99823.41;104636;1292;71238;-55
2024/02/06 02:31:07;;;;;;;525.20;225.50;;;;;;;7.62;94.59;99829.75;104664;1292;62560;-56
2024/02/06 02:33:54;;;;;;;16.30;7.40;;;;;;;7.57;95.33;99817.48;104630;1292;60384;-55
2024/02/06 02:36:40;;;;;;;11.90;7.20;;;;;;;7.52;95.26;99817.74;104618;1291;72416;-56
2024/02/06 02:39:27;;;;;;;340.90;134.70;;;;;;;7.48;95.67;99811.29;104623;1292;71561;-56
2024/02/06 02:42:13;;;;;;;16.20;8.60;;;;;;;7.46;96.74;99803.25;104635;1291;71350;-56
2024/02/06 02:44:59;;;;;;;18.30;7.20;;;;;;;7.44;97.27;99799.18;104589;1292;60501;-55
2024/02/06 02:47:46;;;;;;;11.80;9.10;;;;;;;7.42;97.02;99803.50;104694;1291;61638;-55
2024/02/06 02:50:32;;;;;;;14.50;8.10;;;;;;;7.39;96.92;99798.91;104564;1291;72691;-56
2024/02/06 02:53:19;;;;;;;10.40;7.50;;;;;;;7.38;97.50;99801.52;104632;1291;71155;-56
2024/02/06 02:56:05;;;;;;;12.90;7.70;;;;;;;7.38;97.64;99797.73;104670;1291;71192;-56
2024/02/06 02:58:51;;;;;;;15.10;7.60;;;;;;;7.35;97.86;99798.13;104687;1295;62647;-57
2024/02/06 03:01:37;;;;;;;23.70;15.10;;;;;;;7.34;97.75;99798.30;104589;1291;60412;-56
2024/02/06 03:04:24;;;;;;;15.90;7.90;;;;;;;7.36;98.16;99799.30;104695;1292;72342;-56
2024/02/06 03:07:10;;;;;;;15.30;8.70;;;;;;;7.32;98.43;99803.48;104626;1292;67178;-54
2024/02/06 03:09:56;;;;;;;13.20;7.20;;;;;;;7.28;99.13;99795.67;104635;1294;72405;-56
2024/02/06 03:12:43;;;;;;;12.40;8.30;;;;;;;7.23;99.29;99797.14;104618;1292;60346;-52
2024/02/06 03:15:29;;;;;;;;;;;;;;;7.20;98.94;99797.36;104623;1292;60504;-57
2024/02/06 03:18:15;;;;;;;;;;;;;;;7.21;99.89;99798.20;104579;1293;73074;-55
2024/02/06 03:21:01;;;;;;;11.70;8.20;;;;;;;7.21;100.00;99798.02;104593;1294;67327;-55
2024/02/06 03:23:48;;;;;;;;;;;;;;;7.15;99.91;99793.48;104617;1292;71704;-55
2024/02/06 03:26:34;;;;;;;;;;;;;;;7.09;100.00;99791.52;104662;1292;60117;-56
2024/02/06 03:29:21;;;;;;;14.70;8.30;;;;;;;7.12;100.00;99790.80;104327;1295;456078;-55
2024/02/06 03:32:08;;;;;;;14.10;8.40;;;;;;;7.07;100.00;99786.92;104652;1292;72440;-56
2024/02/06 03:34:55;;;;;;;152.80;37.50;;;;;;;7.08;100.00;99786.06;105848;1291;67833;-57
2024/02/06 03:37:41;;;;;;;18.20;8.00;;;;;;;7.08;100.00;99782.46;105910;1291;71192;-54
2024/02/06 03:40:27;;;;;;;45.50;16.80;;;;;;;7.08;100.00;99781.42;105854;1291;58381;-54
2024/02/06 03:43:13;;;;;;;12.00;7.50;;;;;;;7.09;100.00;99778.51;105934;1291;59789;-56
2024/02/06 03:45:59;;;;;;;10.50;7.50;;;;;;;7.10;100.00;99779.16;105943;1292;73210;-55
2024/02/06 03:48:45;;;;;;;1999.90;610.80;;;;;;;7.13;100.00;99768.50;105930;1295;68571;-57
2024/02/06 03:51:31;;;;;;;9.00;6.60;;;;;;;7.16;100.00;99763.13;105853;1291;70322;-58
2024/02/06 03:54:17;;;;;;;15.00;8.60;;;;;;;7.18;100.00;99760.20;105932;1291;58521;-57
2024/02/06 03:57:04;;;;;;;34.40;7.90;;;;;;;7.19;100.00;99765.67;105943;1291;60161;-55
2024/02/06 03:59:50;;;;;;;445.80;149.10;;;;;;;7.22;100.00;99762.17;105950;1291;73574;-57
2024/02/06 04:02:36;;;;;;;11.20;4.80;;;;;;;7.26;100.00;99764.53;106006;1291;68436;-57
2024/02/06 04:05:22;;;;;;;77.00;21.30;;;;;;;7.28;100.00;99758.81;105841;1291;72628;-57
2024/02/06 04:08:08;;;;;;;7.80;4.70;;;;;;;7.29;100.00;99753.46;105924;1291;58387;-57
2024/02/06 04:10:56;;;;;;;11.00;4.70;;;;;;;7.31;99.98;99758.59;105903;1291;60086;-57
2024/02/06 04:13:42;;;;;;;103.60;33.10;;;;;;;7.31;99.96;99757.21;105917;1292;73492;-57
2024/02/06 04:16:28;;;;;;;904.30;189.60;;;;;;;7.33;99.81;99760.44;105922;1291;68604;-57
2024/02/06 04:19:14;;;;;;;5.40;4.40;;;;;;;7.37;99.43;99759.00;105905;1292;72134;-57
2024/02/06 04:22:00;;;;;;;417.30;208.20;;;;;;;7.40;99.24;99763.23;105944;1290;58749;-56
2024/02/06 04:24:47;;;;;;;1999.90;472.10;;;;;;;7.41;99.09;99758.77;105945;1291;58952;-57
2024/02/06 04:27:34;;;;;;;15.90;6.90;;;;;;;7.43;98.65;99754.09;105958;1291;75209;-57
2024/02/06 04:30:20;;;;;;;7.90;3.80;;;;;;;7.45;98.56;99754.74;105929;1291;69211;-57
2024/02/06 04:33:06;;;;;;;41.20;13.50;;;;;;;7.46;98.38;99751.30;105989;1290;70395;-54
2024/02/06 04:35:52;;;;;;;4.70;3.70;;;;;;;7.49;98.10;99742.34;105978;1293;58456;-56
2024/02/06 04:38:39;;;;;;;5.90;3.30;;;;;;;7.49;97.79;99737.17;106025;1290;58967;-57
2024/02/06 04:41:25;;;;;;;874.90;265.90;;;;;;;7.52;97.78;99736.11;106005;1289;72934;-57
2024/02/06 04:44:11;;;;;;;10.10;4.00;;;;;;;7.54;97.35;99732.82;105984;1292;69222;-57
2024/02/06 04:46:57;;;;;;;8.70;3.30;;;;;;;7.59;96.70;99726.20;105995;1289;70400;-56
2024/02/06 04:49:43;;;;;;;4.10;3.70;;;;;;;7.63;96.49;99723.05;105957;1291;57951;-56
2024/02/06 04:52:29;;;;;;;4.30;3.30;;;;;;;7.65;95.91;99721.29;105994;1292;58910;-57
2024/02/06 04:55:16;;;;;;;51.80;7.80;;;;;;;7.68;96.16;99720.21;105995;1291;74214;-57
2024/02/06 04:58:02;;;;;;;;;;;;;;;7.71;95.71;99716.73;106014;1289;67337;-56
2024/02/06 05:00:48;;;;;;;9.00;3.30;;;;;;;7.71;95.53;99715.19;105901;1291;73644;-57
2024/02/06 05:03:34;;;;;;;14.70;3.50;;;;;;;7.72;95.30;99711.05;105975;1291;58113;-56
2024/02/06 05:06:21;;;;;;;6.50;3.60;;;;;;;7.72;95.27;99722.02;106022;1291;59130;-56
2024/02/06 05:09:06;;;;;;;;;;;;;;;7.71;94.97;99721.02;105947;1291;71587;-57
2024/02/06 05:11:53;;;;;;;6.70;3.30;;;;;;;7.69;95.19;99725.50;105990;1291;67600;-56
2024/02/06 05:14:39;;;;;;;21.60;17.90;;;;;;;7.69;94.86;99723.80;105934;1292;72102;-57
2024/02/06 05:17:26;;;;;;;5.90;3.40;;;;;;;7.69;94.67;99724.99;105949;1290;57547;-56
2024/02/06 05:20:12;;;;;;;30.60;6.30;;;;;;;7.70;94.72;99720.70;105935;1291;60555;-57
2024/02/06 05:22:58;;;;;;;11.40;5.10;;;;;;;7.69;94.85;99721.39;105978;1291;73429;-57
2024/02/06 05:25:44;;;;;;;3.80;3.40;;;;;;;7.69;94.83;99724.31;105995;1291;68128;-57
2024/02/06 05:28:30;;;;;;;1245.30;309.90;;;;;;;7.66;94.80;99719.56;105825;1292;71274;-57
2024/02/06 05:31:16;;;;;;;14.90;5.80;;;;;;;7.66;94.67;99720.59;105976;1292;58618;-56
2024/02/06 05:34:02;;;;;;;11.20;5.50;;;;;;;7.65;94.68;99717.53;105960;1289;60383;-56
2024/02/06 05:36:48;;;;;;;6.70;3.70;;;;;;;7.63;94.69;99713.43;106018;1292;73779;-57
2024/02/06 05:39:34;;;;;;;4.20;3.50;;;;;;;7.62;94.47;99704.54;106010;1291;67799;-57
2024/02/06 05:42:20;;;;;;;310.80;113.70;;;;;;;7.64;94.53;99710.85;105939;1291;73696;-57
2024/02/06 05:45:08;;;;;;;5.10;4.00;;;;;;;7.64;94.22;99705.02;105909;1291;58780;-57
2024/02/06 05:47:55;;;;;;;947.40;163.50;;;;;;;7.65;94.26;99701.73;105966;1289;60060;-57
2024/02/06 05:50:41;;;;;;;17.40;8.40;;;;;;;7.70;93.39;99701.14;105858;1292;73680;-53
2024/02/06 05:53:27;;;;;;;16.50;7.50;;;;;;;7.74;93.45;99695.73;105978;1292;67431;-54
2024/02/06 05:56:13;;;;;;;4.10;3.30;;;;;;;7.77;93.16;99698.09;105934;1291;72554;-56
2024/02/06 05:58:59;;;;;;;689.50;221.50;;;;;;;7.79;92.74;99703.53;105977;1292;58593;-57
2024/02/06 06:01:45;;;;;;;158.90;32.90;;;;;;;7.81;92.52;99708.61;105956;1292;58837;-56
2024/02/06 06:04:31;;;;;;;471.40;136.20;;;;;;;7.84;92.23;99702.55;105996;1289;72310;-55
2024/02/06 06:07:17;;;;;;;923.40;406.40;;;;;;;7.85;92.41;99700.98;105949;1293;67388;-54
2024/02/06 06:10:04;;;;;;;215.60;36.00;;;;;;;7.86;92.08;99702.52;105986;1292;71321;-57
2024/02/06 06:12:50;;;;;;;260.60;80.60;;;;;;;7.87;91.91;99715.86;105620;1291;58400;-56
2024/02/06 06:15:36;;;;;;;210.40;98.00;;;;;;;7.89;91.88;99703.83;104648;1292;59157;-54
2024/02/06 06:18:22;;;;;;;6.70;3.90;;;;;;;7.89;91.61;99704.33;104622;1294;76291;-56
2024/02/06 06:21:08;;;;;;;5.50;3.90;;;;;;;7.88;91.77;99704.36;104632;1293;67117;-55
2024/02/06 06:23:55;;;;;;;251.40;105.70;;;;;;;7.87;91.62;99715.36;104608;1294;73288;-56
2024/02/06 06:26:41;;;;;;;9.80;3.30;;;;;;;7.86;91.61;99715.56;104710;1289;61339;-57
2024/02/06 06:29:27;;;;;;;268.70;87.90;;;;;;;7.82;91.74;99717.34;104825;1288;60285;-54
2024/02/06 06:32:14;;;;;;;5.90;3.20;;;;;;;7.79;92.00;99718.11;104746;1289;72261;-54
2024/02/06 06:35:00;;;;;;;;;;;;;;;7.75;92.20;99718.19;104781;1293;69453;-54
2024/02/06 06:37:48;;;;;;;55.00;7.60;;;;;;;7.72;92.50;99728.20;104802;1293;71117;-56
2024/02/06 06:40:34;;;;;;;7.40;4.20;;;;;;;7.66;93.15;99730.38;104812;1289;60384;-55
2024/02/06 06:43:21;;;;;;;6.10;4.60;;;;;;;7.55;93.74;99723.71;104829;1292;60586;-56
2024/02/06 06:46:07;;;;;;;7.30;4.70;;;;;;;7.47;94.38;99733.62;104787;1293;72417;-56
2024/02/06 06:48:54;;;;;;;4.90;4.20;;;;;;;7.40;95.03;99721.73;104767;1289;67696;-56
2024/02/06 06:51:40;;;;;;;853.50;339.40;;;;;;;7.33;95.55;99724.77;104732;1289;75435;-54
2024/02/06 06:54:26;;;;;;;8.50;4.60;;;;;;;7.27;95.65;99733.63;104729;1289;60354;-53
2024/02/06 06:57:13;;;;;;;7.00;4.10;;;;;;;7.24;96.13;99725.31;104721;1294;60996;-56
2024/02/06 06:59:59;;;;;;;6.90;4.70;;;;;;;7.18;96.67;99727.98;104725;1294;73770;-55
2024/02/06 07:02:45;;;;;;;6.00;4.80;;;;;;;7.14;97.03;99730.78;104797;1294;67125;-56
2024/02/06 07:05:32;;;;;;;6.50;5.10;;;;;;;7.10;97.37;99734.45;104679;1293;72061;-56
2024/02/06 07:08:19;;;;;;;8.80;4.60;;;;;;;7.07;97.42;99730.20;104751;1289;60557;-56
2024/02/06 07:11:06;;;;;;;7.00;4.90;;;;;;;7.09;97.55;99733.09;104798;1289;61121;-55
2024/02/06 07:13:52;;;;;;;9.30;5.00;;;;;;;7.08;97.84;99734.82;104548;1295;72444;-56
2024/02/06 07:16:39;;;;;;;5.50;4.30;;;;;;;7.08;97.92;99738.58;104699;1289;67226;-56
2024/02/06 07:19:26;;;;;;;6.20;4.70;;;;;;;7.06;98.46;99737.92;104646;1291;71178;-53
2024/02/06 07:22:13;;;;;;;8.10;5.00;;;;;;;7.05;98.34;99738.46;104678;1292;60362;-56
2024/02/06 07:24:59;;;;;;;;;;;;;;;7.05;98.45;99736.06;104661;1292;61051;-54
2024/02/06 07:27:45;;;;;;;7.30;3.80;;;;;;;7.04;98.85;99728.72;104493;1290;73381;-55
2024/02/06 07:30:31;;;;;;;5.90;4.20;;;;;;;7.06;98.91;99728.17;104597;1291;69944;-53
2024/02/06 07:33:18;;;;;;;4.80;3.90;;;;;;;7.03;99.13;99722.39;104590;1292;71383;-53
2024/02/06 07:36:04;;;;;;;4.90;3.90;;;;;;;7.04;99.34;99724.59;104623;1292;60499;-54
2024/02/06 07:38:50;;;;;;;6.50;4.20;;;;;;;7.05;99.22;99727.66;104588;1292;60740;-56
2024/02/06 07:41:38;;;;;;;5.50;4.50;;;;;;;7.05;99.47;99728.53;104605;1294;75162;-55
2024/02/06 07:44:24;;;;;;;182.20;39.00;;;;;;;7.05;99.32;99729.55;104597;1292;69126;-53
2024/02/06 07:47:10;;;;;;;5.80;4.40;;;;;;;7.05;99.72;99728.02;104619;1289;74009;-55
2024/02/06 07:49:57;;;;;;;243.50;55.00;;;;;;;7.05;99.81;99736.58;104619;1293;60585;-56
2024/02/06 07:52:44;;;;;;;851.50;253.60;;;;;;;7.06;99.84;99734.85;104577;1294;60343;-52
2024/02/06 07:55:30;;;;;;;4.70;4.10;;;;;;;7.09;99.80;99736.85;104518;1292;74365;-53
2024/02/06 07:58:16;;;;;;;70.80;21.70;;;;;;;7.09;99.93;99733.95;104660;1292;70075;-54
2024/02/06 08:01:03;;;;;;;5.90;4.30;;;;;;;7.08;100.00;99733.11;104615;1293;70621;-54
2024/02/06 08:03:50;;;;;;;265.20;141.90;;;;;;;7.10;100.00;99734.96;104588;1292;60371;-51
2024/02/06 08:06:36;;;;;;;1554.00;326.10;;;;;;;7.10;100.00;99729.82;104644;1292;60480;-53
2024/02/06 08:09:23;;;;;;;8.50;4.00;;;;;;;7.09;100.00;99730.68;104642;1291;75250;-52
2024/02/06 08:12:10;;;;;;;6.20;4.10;;;;;;;7.10;100.00;99734.61;104651;1289;67591;-51
2024/02/06 08:14:56;;;;;;;;;;;;;;;7.11;100.00;99737.16;104640;1293;73562;-54
2024/02/06 08:17:46;;;;;;;;;;;;;;;7.12;100.00;99735.96;104712;1291;63095;-52
2024/02/06 08:20:33;;;;;;;5.20;3.80;;;;;;;7.09;100.00;99736.34;104699;1292;60334;-53
2024/02/06 08:23:22;;;;;;;6.10;4.00;;;;;;;7.10;100.00;99737.02;104623;1294;72567;-53
2024/02/06 08:26:08;;;;;;;6.80;4.10;;;;;;;7.05;100.00;99732.46;104620;1292;68696;-52
2024/02/06 08:28:54;;;;;;;;;;;;;;;7.02;100.00;99727.71;104620;1294;71272;-54
2024/02/06 08:31:40;;;;;;;;;;;;;;;6.98;100.00;99721.44;104631;1292;60364;-54
2024/02/06 08:34:26;;;;;;;;;;;;;;;6.96;100.00;99726.10;104643;1290;60372;-51
2024/02/06 08:37:12;;;;;;;;;;;;;;;6.94;100.00;99730.23;104652;1290;72420;-53
2024/02/06 08:39:59;;;;;;;;;;;;;;;6.90;100.00;99729.61;104621;1292;68318;-54
2024/02/06 08:42:45;;;;;;;13.40;12.10;;;;;;;6.85;100.00;99725.58;104691;1289;71171;-56
2024/02/06 08:45:31;;;;;;;693.50;181.60;;;;;;;6.86;100.00;99721.11;104647;1292;60463;-54
2024/02/06 08:48:18;;;;;;;9.80;5.20;;;;;;;6.85;100.00;99717.52;104556;1293;60390;-53
2024/02/06 08:51:04;;;;;;;;;;;;;;;6.86;100.00;99718.71;104671;1290;72627;-54
2024/02/06 08:53:50;;;;;;;;;;;;;;;6.86;100.00;99727.27;104670;1292;69015;-54
2024/02/06 08:56:36;;;;;;;;;;;;;;;6.86;100.00;99716.83;104694;1294;71197;-55
2024/02/06 08:59:23;;;;;;;15.10;10.50;;;;;;;6.84;100.00;99725.08;104711;1289;60427;-54
2024/02/06 09:02:09;;;;;;;289.60;52.70;;;;;;;6.85;100.00;99711.70;105886;1289;59470;-56
2024/02/06 09:04:55;;;;;;;9.80;5.00;;;;;;;6.84;100.00;99707.25;105925;1290;74169;-57
2024/02/06 09:07:41;;;;;;;8.60;4.90;;;;;;;6.88;100.00;99699.84;105921;1289;68681;-55
2024/02/06 09:10:27;;;;;;;7.40;4.90;;;;;;;6.92;100.00;99703.19;105842;1292;71267;-56
2024/02/06 09:13:13;;;;;;;9.10;5.40;;;;;;;6.95;100.00;99707.42;105897;1292;58204;-57
2024/02/06 09:16:01;;;;;;;16.00;5.00;;;;;;;6.97;100.00;99702.78;105971;1289;58188;-57
2024/02/06 09:18:47;;;;;;;11.50;4.40;;;;;;;7.00;100.00;99692.96;105990;1294;72572;-52
2024/02/06 09:21:33;;;;;;;6.00;4.00;;;;;;;7.04;100.00;99692.90;105862;1293;67448;-55
2024/02/06 09:24:19;;;;;;;1634.40;390.00;;;;;;;7.06;100.00;99697.33;106037;1289;72162;-55
2024/02/06 09:27:05;;;;;;;8.10;4.30;;;;;;;7.10;100.00;99695.89;106035;1294;58516;-55
2024/02/06 09:29:51;;;;;;;4.20;3.80;;;;;;;7.11;100.00;99691.41;105931;1290;60265;-55
2024/02/06 09:32:39;;;;;;;295.30;53.30;;;;;;;7.12;100.00;99686.94;105939;1292;73740;-52
2024/02/06 09:35:25;;;;;;;26.90;5.80;;;;;;;7.17;100.00;99689.94;105963;1289;67255;-55
2024/02/06 09:38:11;;;;;;;8.20;4.80;;;;;;;7.14;100.00;99691.19;106035;1294;72604;-55
2024/02/06 09:40:57;;;;;;;4.80;3.70;;;;;;;7.11;100.00;99688.49;106024;1289;58520;-54
2024/02/06 09:43:44;;;;;;;263.60;58.50;;;;;;;7.09;100.00;99686.81;106000;1289;58076;-55
2024/02/06 09:46:30;;;;;;;3.80;3.50;;;;;;;7.11;100.00;99684.55;105976;1289;73771;-55
2024/02/06 09:49:17;;;;;;;7.40;4.10;;;;;;;7.13;100.00;99683.50;105989;1291;66393;-55
2024/02/06 09:52:04;;;;;;;8.00;5.50;;;;;;;7.15;100.00;99681.06;105987;1289;70346;-55
2024/02/06 09:54:51;;;;;;;253.60;90.60;;;;;;;7.20;100.00;99681.33;105825;1292;58280;-55
2024/02/06 09:57:39;;;;;;;4.80;4.10;;;;;;;7.22;100.00;99686.24;106060;1289;59693;-55
2024/02/06 10:00:25;;;;;;;45.80;21.00;;;;;;;7.26;100.00;99688.39;105983;1289;73001;-56
2024/02/06 10:03:17;;;;;;;9.70;5.00;;;;;;;7.27;100.00;99690.61;105964;1289;67275;-54
2024/02/06 10:06:07;;;;;;;32.20;13.50;;;;;;;7.26;100.00;99692.88;105989;1291;71167;-54
2024/02/06 10:08:55;;;;;;;7.20;5.20;;;;;;;7.26;100.00;99691.16;105779;1292;58494;-55
2024/02/06 10:11:41;;;;;;;9.70;5.50;;;;;;;7.27;100.00;99690.96;105938;1292;59495;-56
2024/02/06 10:14:27;;;;;;;7.30;5.00;;;;;;;7.27;100.00;99690.61;106006;1289;71498;-56
2024/02/06 10:17:14;;;;;;;7.20;4.80;;;;;;;7.27;100.00;99684.96;105960;1290;66311;-54
2024/02/06 10:20:10;;;;;;;7.30;4.70;;;;;;;7.25;100.00;99681.74;105115;1289;71373;-53
2024/02/06 10:22:57;;;;;;;10.30;4.90;;;;;;;7.26;100.00;99674.69;104670;1291;59154;-51
2024/02/06 10:25:44;;;;;;;7.90;5.20;;;;;;;7.26;100.00;99675.73;104656;1291;60921;-55
2024/02/06 10:28:31;;;;;;;338.90;160.60;;;;;;;7.26;100.00;99673.50;104706;1289;75226;-54
2024/02/06 10:31:17;;;;;;;7.90;5.30;;;;;;;7.25;100.00;99667.16;104721;1294;67277;-51
2024/02/06 10:34:21;;;;;;;7.00;4.60;;;;;;;7.28;100.00;99665.73;104535;1289;74005;-51
2024/02/06 10:37:08;;;;;;;7.40;4.10;;;;;;;7.30;100.00;99659.85;104722;1291;60325;-54
2024/02/06 10:39:54;;;;;;;9.50;4.40;;;;;;;7.35;100.00;99651.88;104560;1292;61092;-55
2024/02/06 10:42:41;;;;;;;6.90;4.20;;;;;;;7.39;100.00;99648.71;104740;1289;73242;-53
2024/02/06 10:45:27;;;;;;;;;;;;;;;7.43;100.00;99648.82;106036;1293;67578;-55
2024/02/06 10:48:15;;;;;;;8.70;3.70;;;;;;;7.48;100.00;99646.16;106078;1289;71422;-56
2024/02/06 10:51:01;;;;;;;5.90;3.80;;;;;;;7.52;100.00;99648.31;106084;1289;58273;-56
2024/02/06 10:53:47;;;;;;;8.80;3.80;;;;;;;7.53;100.00;99647.77;106083;1289;58961;-55
2024/02/06 10:56:36;;;;;;;7.70;3.80;;;;;;;7.54;100.00;99642.42;106110;1289;72572;-56
2024/02/06 10:59:29;;;;;;;19.10;6.60;;;;;;;7.56;100.00;99639.48;105983;1292;68429;-56
2024/02/06 11:02:30;;;;;;;5.70;3.90;;;;;;;7.58;100.00;99642.70;106125;1289;72336;-55
2024/02/06 11:05:28;;;;;;;4.70;3.10;;;;;;;7.59;100.00;99635.98;106036;1289;58267;-55
2024/02/06 11:08:20;;;;;;;11.00;4.80;;;;;;;7.64;100.00;99636.07;106164;1292;59446;-55
2024/02/06 11:11:07;;;;;;;432.70;214.50;;;;;;;7.71;100.00;99631.65;105917;1289;72577;-56
2024/02/06 11:13:56;;;;;;;6.90;2.70;;;;;;;7.77;100.00;99631.00;106051;1289;68217;-56
2024/02/06 11:16:51;;;;;;;6.50;3.90;;;;;;;7.83;100.00;99627.23;106197;1289;73599;-57
2024/02/06 11:20:04;;;;;;;9.30;4.50;;;;;;;7.84;100.00;99625.33;105995;1289;58898;-57
2024/02/06 11:23:13;;;;;;;5.70;3.00;;;;;;;7.87;100.00;99627.33;106107;1295;58835;-58
2024/02/06 11:26:00;;;;;;;7.50;2.80;;;;;;;7.92;99.74;99624.67;106194;1289;73749;-58
2024/02/06 11:28:50;;;;;;;10.00;2.60;;;;;;;7.96;99.78;99621.14;106133;1289;67788;-57
2024/02/06 11:31:38;;;;;;;693.30;304.60;;;;;;;8.01;99.53;99615.90;106206;1289;72316;-57
2024/02/06 11:34:24;;;;;;;414.90;101.10;;;;;;;8.06;99.11;99611.34;105450;1289;60367;-57
2024/02/06 11:37:10;;;;;;;;;;;;;;;8.11;98.71;99607.61;104850;1289;60559;-57
2024/02/06 11:45:19;;;;;;;4.30;2.00;;;;;;;8.21;97.42;99592.27;104598;1294;83519;-57
2024/02/06 11:48:07;;;;;;;206.70;105.30;;;;;;;8.26;97.07;99588.39;104635;1291;60588;-58
2024/02/06 11:50:53;;;;;;;7.80;5.20;;;;;;;8.29;96.70;99586.08;104656;1291;60784;-59
2024/02/06 11:53:39;;;;;;;;;;;;;;;8.34;96.60;99587.87;104713;1292;72387;-59
2024/02/06 11:56:25;;;;;;;;;;;;;;;8.37;96.18;99578.34;104634;1295;67211;-59
2024/02/06 11:59:12;;;;;;;;;;;;;;;8.41;94.81;99577.23;104571;1295;73143;-58
2024/02/06 12:02:09;;;;;;;7.70;2.10;;;;;;;8.44;95.78;99577.14;104689;1295;60487;-58
2024/02/06 12:05:06;;;;;;;895.00;191.50;;;;;;;8.48;95.90;99576.70;104689;1291;60367;-57
2024/02/06 12:07:56;;;;;;;7.70;2.20;;;;;;;8.52;94.60;99578.16;104845;1290;74109;-57
2024/02/06 12:10:43;;;;;;;2.50;2.00;;;;;;;8.55;94.21;99576.02;104549;1289;67544;-55
2024/02/06 12:13:32;;;;;;;9.90;2.60;;;;;;;8.60;93.68;99574.36;104801;1289;71137;-56
2024/02/06 12:16:19;;;;;;;7.10;2.50;;;;;;;8.62;94.22;99577.04;104853;1289;60604;-54
2024/02/06 12:19:06;;;;;;;1999.90;626.70;;;;;;;8.64;93.48;99565.83;106079;1289;59148;-57
2024/02/06 12:22:03;;;;;;;123.80;62.00;;;;;;;8.70;92.76;99569.64;106228;1289;72577;-57
2024/02/06 12:24:49;;;;;;;4.90;2.00;;;;;;;8.74;92.46;99564.21;106139;1291;68177;-57
2024/02/06 12:27:38;;;;;;;4.10;2.10;;;;;;;8.78;92.08;99558.46;106052;1289;71387;-57
2024/02/06 12:30:29;;;;;;;5.10;1.70;;;;;;;8.82;90.90;99545.61;106169;1289;58696;-57
2024/02/06 12:33:15;;;;;;;6.10;2.90;;;;;;;8.88;91.02;99541.13;106001;1289;60164;-57
2024/02/06 12:36:02;;;;;;;10.10;2.70;;;;;;;8.92;91.12;99545.84;106194;1289;73670;-56
2024/02/06 12:38:52;;;;;;;22.70;13.70;;;;;;;8.94;90.51;99544.25;106213;1289;68813;-57
2024/02/06 12:41:39;;;;;;;99.80;20.60;;;;;;;8.96;89.92;99541.27;106115;1289;72466;-57
2024/02/06 12:44:25;;;;;;;44.60;8.10;;;;;;;8.98;89.41;99547.05;106185;1289;58288;-57
2024/02/06 12:47:11;;;;;;;203.30;114.70;;;;;;;9.02;89.52;99545.42;106191;1289;59036;-56
2024/02/06 12:49:58;;;;;;;6.90;2.70;;;;;;;9.03;89.21;99541.44;106150;1289;72578;-57
2024/02/06 12:52:44;;;;;;;3.80;2.30;;;;;;;9.05;89.24;99541.39;106117;1289;67283;-56
2024/02/06 12:55:30;;;;;;;34.70;5.90;;;;;;;9.05;88.85;99541.38;106184;1289;71129;-56
2024/02/06 12:58:18;;;;;;;4.70;2.50;;;;;;;9.06;88.56;99535.00;106195;1289;59004;-56
2024/02/06 13:01:05;;;;;;;36.80;24.30;;;;;;;9.08;88.35;99537.86;106208;1289;59054;-57
2024/02/06 13:03:57;;;;;;;4.00;2.40;;;;;;;9.09;87.88;99542.81;106119;1289;73795;-56
2024/02/06 13:06:43;;;;;;;199.70;59.50;;;;;;;9.11;87.79;99541.56;106179;1291;68073;-56